createdAt,value
2018-08-22T00:00:02.474Z,86.43
2018-08-22T00:01:02.672Z,86.05
2018-08-22T00:02:02.862Z,86.43
2018-08-22T00:03:03.055Z,87.01
2018-08-22T00:04:03.242Z,87.29
2018-08-22T00:05:03.438Z,87.77
2018-08-22T00:06:03.627Z,88.06
2018-08-22T00:07:03.823Z,87.96
2018-08-22T00:08:04.011Z,87.96
2018-08-22T00:09:04.225Z,87.68
2018-08-22T00:10:04.397Z,87.29
2018-08-22T00:11:04.589Z,86.81
2018-08-22T00:12:04.772Z,85.85
2018-08-22T00:13:04.982Z,86.14
2018-08-22T00:14:05.172Z,86.33
2018-08-22T00:15:05.381Z,85.95
2018-08-22T00:16:05.551Z,87.01
2018-08-22T00:17:05.744Z,86.91
2018-08-22T00:18:05.940Z,87.29
2018-08-22T00:19:06.134Z,88.16
2018-08-22T00:20:06.327Z,87.39
2018-08-22T00:21:06.519Z,87.01
2018-08-22T00:22:06.716Z,86.91
2018-08-22T00:23:06.910Z,86.52
2018-08-22T00:24:07.101Z,87.05
2018-08-22T00:25:07.296Z,86.91
2018-08-22T00:26:07.487Z,86.91
2018-08-22T00:27:07.677Z,87.29
2018-08-22T00:28:07.872Z,87.10
2018-08-22T00:29:08.120Z,87.96
2018-08-22T00:30:08.258Z,87.68
2018-08-22T00:31:08.450Z,87.19
2018-08-22T00:32:08.640Z,88.25
2018-08-22T00:33:08.832Z,88.06
2018-08-22T00:34:09.033Z,88.64
2018-08-22T00:35:09.217Z,88.64
2018-08-22T00:36:09.405Z,89.02
2018-08-22T00:37:09.595Z,89.65
2018-08-22T00:38:09.788Z,88.79
2018-08-22T00:39:09.983Z,89.40
2018-08-22T00:40:10.175Z,89.65
2018-08-22T00:41:10.364Z,89.22
2018-08-22T00:42:10.551Z,89.22
2018-08-22T00:43:10.743Z,88.73
2018-08-22T00:44:10.934Z,88.16
2018-08-22T00:45:11.129Z,88.54
2018-08-22T00:46:11.318Z,88.54
2018-08-22T00:47:11.513Z,87.96
2018-08-22T00:48:11.706Z,87.96
2018-08-22T00:49:11.894Z,87.96
2018-08-22T00:50:12.092Z,87.19
2018-08-22T00:51:12.293Z,87.10
2018-08-22T00:52:12.478Z,86.62
2018-08-22T00:53:12.675Z,86.33
2018-08-22T00:54:12.866Z,86.09
2018-08-22T00:55:13.060Z,85.99
2018-08-22T00:56:13.247Z,85.80
2018-08-22T00:57:13.437Z,85.13
2018-08-22T00:58:13.630Z,85.13
2018-08-22T00:59:13.824Z,85.28
2018-08-22T01:00:14.019Z,85.75
2018-08-22T01:01:14.208Z,86.43
2018-08-22T01:02:14.395Z,86.91
2018-08-22T01:03:14.586Z,87.10
2018-08-22T01:04:14.779Z,86.62
2018-08-22T01:05:14.972Z,86.52
2018-08-22T01:06:15.170Z,86.52
2018-08-22T01:07:15.358Z,87.01
2018-08-22T01:08:15.556Z,86.72
2018-08-22T01:09:15.746Z,87.10
2018-08-22T01:10:15.941Z,87.19
2018-08-22T01:11:16.134Z,87.68
2018-08-22T01:12:16.324Z,87.68
2018-08-22T01:13:16.518Z,87.87
2018-08-22T01:14:16.705Z,87.87
2018-08-22T01:15:16.897Z,88.25
2018-08-22T01:16:17.092Z,87.49
2018-08-22T01:17:17.286Z,87.68
2018-08-22T01:18:17.478Z,87.29
2018-08-22T01:19:17.672Z,87.01
2018-08-22T01:20:17.863Z,87.29
2018-08-22T01:21:18.060Z,87.29
2018-08-22T01:22:18.253Z,87.10
2018-08-22T01:23:18.496Z,87.96
2018-08-22T01:24:18.659Z,88.16
2018-08-22T01:25:18.850Z,87.87
2018-08-22T01:26:19.037Z,87.77
2018-08-22T01:27:19.226Z,87.49
2018-08-22T01:28:19.421Z,88.16
2018-08-22T01:29:19.617Z,88.35
2018-08-22T01:30:19.804Z,88.16
2018-08-22T01:31:19.997Z,88.83
2018-08-22T01:32:20.187Z,88.64
2018-08-22T01:33:20.383Z,88.93
2018-08-22T01:34:20.570Z,89.84
2018-08-22T01:35:20.760Z,89.79
2018-08-22T01:36:20.954Z,90.27
2018-08-22T01:37:21.149Z,90.03
2018-08-22T01:38:21.336Z,90.08
2018-08-22T01:39:21.526Z,90.03
2018-08-22T01:40:21.727Z,89.89
2018-08-22T01:41:21.923Z,89.69
2018-08-22T01:42:22.111Z,89.60
2018-08-22T01:43:22.305Z,89.02
2018-08-22T01:44:22.493Z,89.12
2018-08-22T01:45:22.692Z,89.22
2018-08-22T01:46:22.884Z,89.31
2018-08-22T01:47:23.077Z,88.16
2018-08-22T01:48:23.267Z,88.54
2018-08-22T01:49:23.457Z,88.16
2018-08-22T01:50:23.655Z,87.68
2018-08-22T01:51:23.846Z,88.16
2018-08-22T01:52:24.035Z,88.25
2018-08-22T01:53:24.226Z,88.16
2018-08-22T01:54:24.415Z,88.73
2018-08-22T01:55:24.614Z,88.16
2018-08-22T01:56:24.801Z,88.16
2018-08-22T01:57:24.992Z,87.01
2018-08-22T01:58:25.185Z,87.15
2018-08-22T01:59:25.378Z,86.95
2018-08-22T02:00:25.568Z,87.05
2018-08-22T02:01:25.766Z,87.10
2018-08-22T02:02:25.957Z,88.16
2018-08-22T02:03:26.149Z,88.54
2018-08-22T02:04:26.341Z,89.31
2018-08-22T02:05:26.537Z,89.02
2018-08-22T02:06:26.725Z,89.12
2018-08-22T02:07:26.918Z,88.93
2018-08-22T02:08:27.115Z,88.73
2018-08-22T02:09:27.304Z,89.22
2018-08-22T02:10:27.500Z,88.64
2018-08-22T02:11:27.695Z,88.54
2018-08-22T02:12:27.891Z,88.64
2018-08-22T02:13:28.085Z,88.06
2018-08-22T02:14:28.274Z,87.87
2018-08-22T02:15:28.468Z,88.35
2018-08-22T02:16:28.660Z,88.06
2018-08-22T02:17:28.853Z,88.16
2018-08-22T02:18:29.044Z,88.16
2018-08-22T02:19:29.238Z,88.54
2018-08-22T02:20:29.434Z,88.10
2018-08-22T02:21:29.625Z,87.43
2018-08-22T02:22:29.813Z,87.82
2018-08-22T02:23:30.006Z,87.87
2018-08-22T02:24:30.201Z,87.58
2018-08-22T02:25:30.389Z,88.25
2018-08-22T02:26:30.586Z,88.54
2018-08-22T02:27:30.778Z,88.54
2018-08-22T02:28:30.972Z,88.06
2018-08-22T02:29:31.169Z,88.25
2018-08-22T02:30:31.386Z,87.72
2018-08-22T02:31:31.551Z,87.77
2018-08-22T02:32:31.750Z,88.39
2018-08-22T02:33:31.933Z,88.39
2018-08-22T02:34:32.127Z,88.78
2018-08-22T02:35:32.321Z,88.30
2018-08-22T02:36:32.511Z,87.62
2018-08-22T02:37:32.698Z,88.39
2018-08-22T02:38:32.891Z,87.72
2018-08-22T02:39:33.085Z,88.01
2018-08-22T02:40:33.277Z,87.24
2018-08-22T02:41:33.473Z,87.34
2018-08-22T02:42:33.666Z,86.38
2018-08-22T02:43:33.865Z,86.38
2018-08-22T02:44:34.050Z,86.18
2018-08-22T02:45:34.243Z,86.47
2018-08-22T02:46:34.438Z,86.47
2018-08-22T02:47:34.628Z,86.38
2018-08-22T02:48:34.818Z,86.18
2018-08-22T02:49:35.021Z,86.95
2018-08-22T02:50:35.219Z,86.57
2018-08-22T02:51:35.397Z,86.85
2018-08-22T02:52:35.602Z,88.20
2018-08-22T02:53:35.792Z,87.53
2018-08-22T02:54:35.982Z,88.49
2018-08-22T02:55:36.172Z,88.59
2018-08-22T02:56:36.366Z,88.01
2018-08-22T02:57:36.563Z,88.39
2018-08-22T02:58:36.758Z,88.10
2018-08-22T02:59:36.953Z,88.20
2018-08-22T03:00:37.138Z,87.62
2018-08-22T03:01:37.333Z,87.62
2018-08-22T03:02:37.529Z,87.53
2018-08-22T03:03:37.723Z,87.24
2018-08-22T03:04:37.912Z,87.15
2018-08-22T03:05:38.107Z,86.95
2018-08-22T03:06:38.304Z,87.05
2018-08-22T03:07:38.493Z,86.28
2018-08-22T03:08:38.687Z,86.47
2018-08-22T03:09:38.880Z,85.89
2018-08-22T03:10:39.085Z,85.99
2018-08-22T03:11:39.271Z,86.85
2018-08-22T03:12:39.474Z,86.76
2018-08-22T03:13:39.673Z,87.34
2018-08-22T03:14:39.866Z,88.20
2018-08-22T03:15:40.057Z,88.59
2018-08-22T03:16:40.258Z,88.78
2018-08-22T03:17:40.455Z,89.07
2018-08-22T03:18:40.646Z,87.82
2018-08-22T03:19:40.839Z,88.68
2018-08-22T03:20:41.031Z,87.92
2018-08-22T03:21:41.224Z,87.92
2018-08-22T03:22:41.419Z,87.82
2018-08-22T03:23:41.613Z,87.53
2018-08-22T03:24:41.800Z,87.15
2018-08-22T03:25:41.994Z,86.95
2018-08-22T03:26:42.188Z,87.15
2018-08-22T03:27:42.379Z,86.85
2018-08-22T03:28:42.590Z,87.05
2018-08-22T03:29:42.766Z,87.05
2018-08-22T03:30:42.958Z,87.72
2018-08-22T03:31:43.158Z,87.82
2018-08-22T03:32:43.345Z,87.43
2018-08-22T03:33:43.542Z,87.34
2018-08-22T03:34:43.739Z,87.05
2018-08-22T03:35:43.924Z,86.85
2018-08-22T03:36:44.202Z,86.66
2018-08-22T03:37:44.307Z,87.53
2018-08-22T03:38:44.497Z,88.10
2018-08-22T03:39:44.689Z,87.53
2018-08-22T03:40:44.885Z,87.15
2018-08-22T03:41:45.078Z,87.43
2018-08-22T03:42:45.273Z,87.15
2018-08-22T03:43:45.464Z,87.15
2018-08-22T03:44:45.659Z,87.82
2018-08-22T03:45:45.853Z,88.20
2018-08-22T03:46:46.038Z,88.39
2018-08-22T03:47:46.239Z,88.39
2018-08-22T03:48:46.422Z,89.26
2018-08-22T03:49:46.617Z,89.16
2018-08-22T03:50:46.808Z,88.97
2018-08-22T03:51:46.997Z,88.39
2018-08-22T03:52:47.192Z,88.68
2018-08-22T03:53:47.437Z,88.68
2018-08-22T03:54:47.579Z,88.39
2018-08-22T03:55:47.771Z,88.59
2018-08-22T03:56:47.960Z,88.87
2018-08-22T03:57:48.155Z,89.36
2018-08-22T03:58:48.351Z,89.16
2018-08-22T03:59:48.544Z,89.26
2018-08-22T04:00:48.735Z,89.07
2018-08-22T04:01:48.931Z,88.30
2018-08-22T04:02:49.124Z,88.10
2018-08-22T04:03:49.314Z,88.39
2018-08-22T04:04:49.507Z,87.62
2018-08-22T04:05:49.697Z,88.06
2018-08-22T04:06:49.891Z,87.43
2018-08-22T04:07:50.089Z,87.53
2018-08-22T04:08:50.271Z,88.10
2018-08-22T04:09:50.462Z,88.01
2018-08-22T04:10:50.658Z,87.38
2018-08-22T04:11:50.850Z,87.29
2018-08-22T04:12:51.044Z,87.82
2018-08-22T04:13:51.237Z,87.62
2018-08-22T04:14:51.428Z,87.53
2018-08-22T04:15:51.618Z,87.38
2018-08-22T04:16:51.816Z,87.76
2018-08-22T04:17:52.008Z,87.86
2018-08-22T04:18:52.198Z,87.09
2018-08-22T04:19:52.393Z,87.38
2018-08-22T04:20:52.579Z,87.19
2018-08-22T04:21:52.773Z,87.19
2018-08-22T04:22:52.963Z,87.57
2018-08-22T04:23:53.157Z,87.76
2018-08-22T04:24:53.351Z,87.53
2018-08-22T04:25:53.547Z,87.92
2018-08-22T04:26:53.740Z,88.01
2018-08-22T04:27:53.929Z,88.30
2018-08-22T04:28:54.120Z,88.20
2018-08-22T04:29:54.316Z,87.62
2018-08-22T04:30:54.532Z,87.92
2018-08-22T04:31:54.700Z,87.76
2018-08-22T04:32:54.906Z,87.57
2018-08-22T04:33:55.074Z,87.24
2018-08-22T04:34:55.276Z,86.90
2018-08-22T04:35:55.471Z,86.99
2018-08-22T04:36:55.665Z,86.90
2018-08-22T04:37:55.851Z,87.09
2018-08-22T04:38:56.046Z,87.38
2018-08-22T04:39:56.245Z,87.67
2018-08-22T04:40:56.432Z,88.30
2018-08-22T04:41:56.624Z,88.68
2018-08-22T04:42:56.823Z,88.59
2018-08-22T04:43:57.012Z,88.87
2018-08-22T04:44:57.219Z,88.59
2018-08-22T04:45:57.415Z,88.30
2018-08-22T04:46:57.604Z,88.59
2018-08-22T04:47:57.798Z,88.39
2018-08-22T04:48:57.989Z,88.59
2018-08-22T04:49:58.181Z,88.87
2018-08-22T04:50:58.373Z,88.39
2018-08-22T04:51:58.562Z,89.36
2018-08-22T04:52:58.755Z,89.16
2018-08-22T04:53:58.948Z,89.07
2018-08-22T04:54:59.144Z,89.45
2018-08-22T04:55:59.334Z,89.26
2018-08-22T04:56:59.532Z,89.16
2018-08-22T04:57:59.719Z,89.26
2018-08-22T04:58:59.913Z,89.07
2018-08-22T05:00:00.107Z,89.54
2018-08-22T05:01:00.303Z,89.54
2018-08-22T05:02:00.489Z,89.93
2018-08-22T05:03:00.683Z,89.45
2018-08-22T05:04:00.875Z,88.68
2018-08-22T05:05:01.067Z,88.59
2018-08-22T05:06:01.296Z,87.92
2018-08-22T05:07:01.457Z,87.62
2018-08-22T05:08:01.677Z,88.06
2018-08-22T05:09:01.837Z,87.67
2018-08-22T05:10:02.028Z,87.38
2018-08-22T05:11:02.217Z,87.09
2018-08-22T05:12:02.412Z,86.99
2018-08-22T05:13:02.612Z,86.90
2018-08-22T05:14:02.803Z,86.80
2018-08-22T05:15:02.994Z,87.19
2018-08-22T05:16:03.189Z,86.52
2018-08-22T05:17:03.380Z,85.94
2018-08-22T05:18:03.578Z,86.18
2018-08-22T05:19:03.768Z,85.11
2018-08-22T05:20:03.959Z,84.92
2018-08-22T05:21:04.159Z,84.83
2018-08-22T05:22:04.350Z,83.48
2018-08-22T05:23:04.549Z,83.29
2018-08-22T05:24:04.737Z,82.94
2018-08-22T05:25:04.939Z,82.46
2018-08-22T05:26:05.129Z,81.79
2018-08-22T05:27:05.319Z,80.77
2018-08-22T05:28:05.511Z,79.81
2018-08-22T05:29:05.708Z,79.17
2018-08-22T05:30:05.945Z,77.19
2018-08-22T05:31:06.098Z,75.14
2018-08-22T05:32:06.288Z,73.44
2018-08-22T05:33:06.479Z,72.42
2018-08-22T05:34:06.677Z,71.39
2018-08-22T05:35:06.873Z,70.14
2018-08-22T05:36:07.061Z,70.39
2018-08-22T05:37:07.255Z,71.06
2018-08-22T05:38:07.453Z,71.90
2018-08-22T05:39:07.647Z,71.90
2018-08-22T05:40:07.852Z,73.06
2018-08-22T05:41:08.054Z,72.96
2018-08-22T05:42:08.255Z,73.19
2018-08-22T05:43:08.446Z,72.00
2018-08-22T05:44:08.642Z,71.55
2018-08-22T05:45:08.838Z,70.20
2018-08-22T05:46:09.031Z,72.00
2018-08-22T05:47:09.224Z,71.74
2018-08-22T05:48:09.426Z,70.94
2018-08-22T05:49:09.640Z,71.90
2018-08-22T05:50:09.832Z,71.51
2018-08-22T05:51:10.030Z,71.51
2018-08-22T05:52:10.236Z,70.78
2018-08-22T05:53:10.428Z,70.29
2018-08-22T05:54:10.625Z,70.87
2018-08-22T05:55:10.819Z,69.94
2018-08-22T05:56:11.014Z,68.98
2018-08-22T05:57:11.212Z,68.98
2018-08-22T05:58:11.409Z,68.78
2018-08-22T05:59:11.602Z,69.07
2018-08-22T06:00:11.800Z,69.26
2018-08-22T06:01:11.994Z,69.94
2018-08-22T06:02:12.191Z,70.14
2018-08-22T06:03:12.443Z,70.39
2018-08-22T06:04:12.585Z,69.74
2018-08-22T06:05:12.780Z,69.07
2018-08-22T06:06:12.984Z,68.52
2018-08-22T06:07:13.181Z,68.37
2018-08-22T06:08:13.374Z,68.43
2018-08-22T06:09:13.591Z,67.43
2018-08-22T06:10:13.773Z,68.52
2018-08-22T06:11:13.967Z,67.49
2018-08-22T06:12:14.162Z,67.01
2018-08-22T06:13:14.362Z,66.47
2018-08-22T06:14:14.566Z,65.79
2018-08-22T06:15:14.765Z,65.88
2018-08-22T06:16:14.960Z,66.72
2018-08-22T06:17:15.166Z,67.94
2018-08-22T06:18:15.356Z,67.79
2018-08-22T06:19:15.555Z,66.60
2018-08-22T06:20:15.762Z,65.88
2018-08-22T06:21:15.960Z,65.82
2018-08-22T06:22:16.161Z,64.98
2018-08-22T06:23:16.370Z,65.75
2018-08-22T06:24:16.555Z,66.60
2018-08-22T06:25:16.752Z,64.82
2018-08-22T06:26:16.959Z,64.92
2018-08-22T06:27:17.160Z,64.95
2018-08-22T06:28:17.375Z,65.66
2018-08-22T06:29:17.567Z,66.98
2018-08-22T06:30:17.763Z,67.36
2018-08-22T06:31:17.966Z,66.85
2018-08-22T06:32:18.162Z,65.69
2018-08-22T06:33:18.366Z,65.75
2018-08-22T06:34:18.649Z,67.30
2018-08-22T06:35:18.784Z,65.66
2018-08-22T06:36:19.023Z,64.89
2018-08-22T06:37:19.184Z,64.04
2018-08-22T06:38:19.386Z,65.11
2018-08-22T06:39:19.582Z,66.11
2018-08-22T06:40:19.773Z,64.37
2018-08-22T06:41:19.982Z,62.43
2018-08-22T06:42:20.183Z,61.65
2018-08-22T06:43:20.385Z,62.85
2018-08-22T06:44:20.658Z,61.65
2018-08-22T06:45:20.785Z,60.68
2018-08-22T06:46:20.989Z,60.00
2018-08-22T06:47:21.193Z,59.92
2018-08-22T06:48:21.392Z,60.41
2018-08-22T06:49:21.595Z,59.47
2018-08-22T06:50:21.835Z,60.45
2018-08-22T06:51:21.995Z,61.43
2018-08-22T06:52:22.193Z,61.98
2018-08-22T06:53:22.399Z,61.68
2018-08-22T06:54:22.594Z,61.13
2018-08-22T06:55:22.795Z,60.97
2018-08-22T06:56:23.000Z,63.10
2018-08-22T06:57:23.201Z,62.52
2018-08-22T06:58:23.399Z,63.17
2018-08-22T06:59:23.597Z,64.11
2018-08-22T07:00:23.801Z,65.27
2018-08-22T07:01:24.003Z,64.50
2018-08-22T07:02:24.207Z,63.49
2018-08-22T07:03:24.407Z,62.29
2018-08-22T07:04:24.604Z,61.13
2018-08-22T07:05:24.809Z,61.94
2018-08-22T07:06:25.013Z,62.26
2018-08-22T07:07:25.217Z,60.41
2018-08-22T07:08:25.422Z,58.95
2018-08-22T07:09:25.621Z,59.05
2018-08-22T07:10:25.824Z,59.25
2018-08-22T07:11:26.024Z,58.89
2018-08-22T07:12:26.231Z,58.40
2018-08-22T07:13:26.428Z,60.38
2018-08-22T07:14:26.633Z,59.86
2018-08-22T07:15:26.834Z,57.81
2018-08-22T07:16:27.038Z,57.20
2018-08-22T07:17:27.243Z,58.57
2018-08-22T07:18:27.444Z,59.57
2018-08-22T07:19:27.650Z,56.96
2018-08-22T07:20:27.850Z,55.44
2018-08-22T07:21:28.053Z,55.43
2018-08-22T07:22:28.254Z,53.78
2018-08-22T07:23:28.456Z,52.41
2018-08-22T07:24:28.661Z,53.07
2018-08-22T07:25:28.864Z,52.80
2018-08-22T07:26:29.067Z,54.48
2018-08-22T07:27:29.268Z,53.27
2018-08-22T07:28:29.467Z,52.19
2018-08-22T07:29:29.684Z,51.37
2018-08-22T07:30:29.909Z,51.17
2018-08-22T07:31:30.075Z,53.45
2018-08-22T07:32:30.285Z,55.30
2018-08-22T07:33:30.490Z,53.94
2018-08-22T07:34:30.697Z,53.11
2018-08-22T07:35:30.889Z,52.19
2018-08-22T07:36:31.101Z,50.29
2018-08-22T07:37:31.313Z,50.36
2018-08-22T07:38:31.511Z,50.49
2018-08-22T07:39:31.716Z,50.32
2018-08-22T07:40:31.924Z,50.02
2018-08-22T07:41:32.132Z,50.26
2018-08-22T07:42:32.327Z,49.26
2018-08-22T07:43:32.539Z,48.41
2018-08-22T07:44:32.743Z,47.92
2018-08-22T07:45:32.950Z,48.53
2018-08-22T07:46:33.159Z,48.48
2018-08-22T07:47:33.366Z,49.24
2018-08-22T07:48:33.583Z,47.92
2018-08-22T07:49:33.788Z,47.72
2018-08-22T07:50:33.972Z,48.21
2018-08-22T07:51:34.188Z,48.50
2018-08-22T07:52:34.399Z,48.75
2018-08-22T07:53:34.600Z,48.70
2018-08-22T07:54:34.802Z,47.82
2018-08-22T07:55:35.005Z,48.80
2018-08-22T07:56:35.211Z,47.55
2018-08-22T07:57:35.419Z,46.50
2018-08-22T07:58:35.627Z,46.72
2018-08-22T07:59:35.839Z,45.00
2018-08-22T08:00:36.045Z,45.49
2018-08-22T08:01:36.253Z,45.02
2018-08-22T08:02:36.472Z,46.23
2018-08-22T08:03:36.682Z,47.26
2018-08-22T08:04:36.890Z,47.41
2018-08-22T08:05:37.157Z,46.72
2018-08-22T08:06:37.301Z,46.33
2018-08-22T08:07:37.515Z,47.48
2018-08-22T08:08:37.768Z,50.34
2018-08-22T08:09:37.922Z,49.63
2018-08-22T08:10:38.128Z,47.67
2018-08-22T08:11:38.337Z,46.84
2018-08-22T08:12:38.559Z,46.98
2018-08-22T08:13:38.748Z,46.40
2018-08-22T08:14:38.956Z,46.50
2018-08-22T08:15:39.169Z,46.40
2018-08-22T08:16:39.375Z,45.83
2018-08-22T08:17:39.596Z,45.12
2018-08-22T08:18:39.800Z,44.58
2018-08-22T08:19:40.015Z,45.91
2018-08-22T08:20:40.225Z,46.11
2018-08-22T08:21:40.424Z,46.75
2018-08-22T08:22:40.645Z,48.41
2018-08-22T08:23:40.847Z,47.18
2018-08-22T08:24:41.048Z,46.47
2018-08-22T08:25:41.255Z,46.47
2018-08-22T08:26:41.459Z,45.83
2018-08-22T08:27:41.664Z,43.92
2018-08-22T08:28:41.868Z,45.32
2018-08-22T08:29:42.077Z,46.40
2018-08-22T08:30:42.349Z,45.29
2018-08-22T08:31:42.488Z,44.88
2018-08-22T08:32:42.693Z,43.76
2018-08-22T08:33:42.900Z,43.57
2018-08-22T08:34:43.102Z,45.02
2018-08-22T08:35:43.324Z,43.22
2018-08-22T08:36:43.516Z,41.88
2018-08-22T08:37:43.725Z,40.43
2018-08-22T08:38:43.935Z,40.63
2018-08-22T08:39:44.136Z,42.58
2018-08-22T08:40:44.344Z,42.68
2018-08-22T08:41:44.642Z,43.04
2018-08-22T08:42:44.752Z,42.79
2018-08-22T08:43:44.958Z,42.90
2018-08-22T08:44:45.167Z,42.76
2018-08-22T08:45:45.371Z,43.52
2018-08-22T08:46:45.589Z,44.68
2018-08-22T08:47:45.797Z,45.52
2018-08-22T08:48:46.011Z,46.11
2018-08-22T08:49:46.216Z,44.88
2018-08-22T08:50:46.417Z,43.26
2018-08-22T08:51:46.632Z,42.71
2018-08-22T08:52:46.838Z,42.15
2018-08-22T08:53:47.043Z,44.73
2018-08-22T08:54:47.259Z,44.68
2018-08-22T08:55:47.536Z,44.09
2018-08-22T08:56:47.681Z,43.08
2018-08-22T08:57:47.891Z,42.19
2018-08-22T08:58:48.100Z,42.04
2018-08-22T08:59:48.308Z,42.51
2018-08-22T09:00:48.513Z,42.21
2018-08-22T09:01:48.723Z,42.37
2018-08-22T09:02:48.936Z,43.26
2018-08-22T09:03:49.250Z,42.79
2018-08-22T09:04:49.348Z,42.58
2018-08-22T09:05:49.557Z,42.58
2018-08-22T09:06:49.770Z,42.61
2018-08-22T09:07:49.969Z,41.94
2018-08-22T09:08:50.175Z,40.69
2018-08-22T09:09:50.384Z,39.86
2018-08-22T09:10:50.627Z,42.52
2018-08-22T09:11:50.797Z,43.38
2018-08-22T09:12:51.008Z,43.31
2018-08-22T09:13:51.212Z,43.52
2018-08-22T09:14:51.414Z,41.74
2018-08-22T09:15:51.633Z,38.58
2018-08-22T09:16:51.839Z,38.56
2018-08-22T09:17:52.043Z,39.70
2018-08-22T09:18:52.251Z,39.13
2018-08-22T09:19:52.459Z,38.66
2018-08-22T09:20:52.667Z,38.15
2018-08-22T09:21:52.877Z,37.79
2018-08-22T09:22:53.086Z,37.59
2018-08-22T09:23:53.304Z,36.85
2018-08-22T09:24:53.497Z,37.18
2018-08-22T09:25:53.706Z,36.53
2018-08-22T09:26:53.910Z,35.82
2018-08-22T09:27:54.119Z,36.83
2018-08-22T09:28:54.318Z,35.90
2018-08-22T09:29:54.529Z,36.47
2018-08-22T09:30:54.740Z,37.72
2018-08-22T09:31:54.957Z,41.15
2018-08-22T09:32:55.154Z,41.51
2018-08-22T09:33:55.366Z,40.84
2018-08-22T09:34:55.575Z,38.17
2018-08-22T09:35:55.783Z,35.54
2018-08-22T09:36:55.986Z,36.72
2018-08-22T09:37:56.191Z,37.84
2018-08-22T09:38:56.398Z,38.13
2018-08-22T09:39:56.621Z,37.57
2018-08-22T09:40:56.815Z,37.32
2018-08-22T09:41:57.023Z,37.99
2018-08-22T09:42:57.228Z,36.80
2018-08-22T09:43:57.427Z,37.22
2018-08-22T09:44:57.632Z,36.82
2018-08-22T09:45:57.849Z,36.96
2018-08-22T09:46:58.055Z,36.65
2018-08-22T09:47:58.265Z,39.37
2018-08-22T09:48:59.202Z,40.06
2018-08-22T09:49:58.664Z,40.25
2018-08-22T09:50:58.918Z,39.88
2018-08-22T09:51:59.083Z,38.90
2018-08-22T09:52:59.289Z,38.05
2018-08-22T09:53:59.488Z,37.14
2018-08-22T09:54:59.704Z,35.41
2018-08-22T09:55:59.908Z,34.66
2018-08-22T09:57:00.116Z,33.39
2018-08-22T09:58:00.324Z,33.01
2018-08-22T09:59:00.533Z,33.85
2018-08-22T10:00:00.758Z,37.67
2018-08-22T10:01:00.968Z,39.01
2018-08-22T10:02:01.164Z,40.51
2018-08-22T10:03:01.369Z,39.88
2018-08-22T10:04:01.582Z,38.78
2018-08-22T10:05:01.801Z,37.61
2018-08-22T10:06:02.001Z,37.41
2018-08-22T10:07:02.222Z,35.77
2018-08-22T10:08:02.420Z,35.28
2018-08-22T10:09:02.627Z,35.38
2018-08-22T10:10:02.856Z,35.56
2018-08-22T10:11:03.044Z,35.46
2018-08-22T10:12:03.261Z,34.55
2018-08-22T10:13:03.463Z,34.33
2018-08-22T10:14:03.665Z,34.86
2018-08-22T10:15:03.868Z,39.33
2018-08-22T10:16:04.083Z,38.78
2018-08-22T10:17:29.180Z,38.64
2018-08-22T10:18:04.631Z,37.40
2018-08-22T10:19:04.728Z,40.88
2018-08-22T10:20:04.887Z,39.01
2018-08-22T10:21:05.101Z,38.46
2018-08-22T10:22:05.313Z,41.25
2018-08-22T10:23:05.518Z,40.78
2018-08-22T10:24:05.736Z,39.19
2018-08-22T10:25:05.929Z,38.05
2018-08-22T10:26:06.139Z,37.40
2018-08-22T10:27:06.358Z,36.33
2018-08-22T10:28:06.556Z,37.29
2018-08-22T10:29:06.767Z,41.88
2018-08-22T10:30:06.988Z,43.52
2018-08-22T10:31:07.176Z,42.33
2018-08-22T10:32:07.386Z,38.76
2018-08-22T10:33:07.680Z,40.16
2018-08-22T10:34:07.797Z,43.13
2018-08-22T10:35:08.005Z,41.98
2018-08-22T10:36:08.213Z,39.09
2018-08-22T10:37:08.420Z,37.67
2018-08-22T10:38:08.630Z,36.90
2018-08-22T10:39:08.849Z,37.07
2018-08-22T10:40:09.054Z,37.08
2018-08-22T10:41:09.267Z,36.77
2018-08-22T10:42:09.472Z,38.03
2018-08-22T10:43:09.687Z,38.40
2018-08-22T10:44:09.892Z,38.11
2018-08-22T10:45:10.097Z,37.36
2018-08-22T10:46:10.303Z,37.26
2018-08-22T10:47:10.511Z,38.19
2018-08-22T10:48:10.716Z,36.32
2018-08-22T10:49:10.941Z,34.31
2018-08-22T10:50:11.128Z,33.72
2018-08-22T10:51:11.334Z,33.44
2018-08-22T10:52:11.544Z,33.16
2018-08-22T10:53:11.744Z,33.25
2018-08-22T10:54:11.958Z,33.26
2018-08-22T10:55:12.161Z,34.51
2018-08-22T10:56:12.366Z,35.78
2018-08-22T10:57:12.572Z,35.84
2018-08-22T10:58:12.777Z,33.41
2018-08-22T10:59:12.984Z,32.45
2018-08-22T11:00:13.194Z,33.41
2018-08-22T11:01:13.398Z,32.52
2018-08-22T11:02:13.601Z,32.16
2018-08-22T11:03:13.811Z,31.95
2018-08-22T11:04:14.011Z,32.82
2018-08-22T11:05:14.215Z,34.17
2018-08-22T11:06:14.440Z,34.18
2018-08-22T11:07:14.649Z,33.72
2018-08-22T11:08:14.855Z,33.33
2018-08-22T11:09:15.061Z,33.53
2018-08-22T11:10:15.275Z,32.77
2018-08-22T11:11:15.461Z,32.09
2018-08-22T11:12:15.679Z,31.60
2018-08-22T11:13:15.893Z,31.90
2018-08-22T11:14:16.101Z,32.07
2018-08-22T11:15:16.339Z,32.34
2018-08-22T11:16:16.568Z,32.90
2018-08-22T11:17:16.775Z,33.20
2018-08-22T11:18:16.987Z,33.86
2018-08-22T11:19:17.188Z,33.79
2018-08-22T11:20:17.399Z,33.42
2018-08-22T11:21:17.602Z,31.85
2018-08-22T11:22:17.827Z,33.20
2018-08-22T11:23:18.013Z,35.41
2018-08-22T11:24:18.217Z,38.07
2018-08-22T11:25:18.422Z,36.78
2018-08-22T11:26:18.628Z,36.60
2018-08-22T11:27:18.838Z,36.52
2018-08-22T11:28:19.041Z,36.22
2018-08-22T11:29:19.246Z,35.67
2018-08-22T11:30:19.451Z,35.18
2018-08-22T11:31:19.655Z,35.36
2018-08-22T11:32:19.860Z,36.39
2018-08-22T11:33:20.069Z,39.11
2018-08-22T11:34:20.320Z,38.80
2018-08-22T11:35:20.484Z,38.96
2018-08-22T11:36:20.692Z,37.72
2018-08-22T11:37:20.898Z,36.83
2018-08-22T11:38:21.102Z,36.16
2018-08-22T11:39:21.307Z,36.26
2018-08-22T11:40:21.503Z,35.87
2018-08-22T11:41:21.711Z,36.80
2018-08-22T11:42:21.916Z,37.45
2018-08-22T11:43:22.128Z,37.84
2018-08-22T11:44:22.325Z,37.46
2018-08-22T11:45:22.530Z,37.81
2018-08-22T11:46:22.731Z,38.51
2018-08-22T11:47:22.940Z,37.86
2018-08-22T11:48:23.135Z,37.38
2018-08-22T11:49:23.350Z,37.40
2018-08-22T11:50:23.580Z,38.29
2018-08-22T11:51:23.787Z,36.42
2018-08-22T11:52:23.989Z,37.09
2018-08-22T11:53:24.194Z,36.80
2018-08-22T11:54:24.395Z,37.25
2018-08-22T11:55:24.606Z,38.02
2018-08-22T11:56:24.807Z,38.41
2018-08-22T11:57:25.010Z,38.78
2018-08-22T11:58:25.212Z,38.96
2018-08-22T11:59:25.414Z,39.78
2018-08-22T12:00:25.620Z,38.02
2018-08-22T12:01:25.825Z,38.90
2018-08-22T12:02:26.027Z,37.84
2018-08-22T12:03:26.222Z,37.84
2018-08-22T12:04:26.424Z,37.84
2018-08-22T12:05:26.625Z,37.07
2018-08-22T12:06:26.828Z,36.99
2018-08-22T12:07:27.028Z,36.80
2018-08-22T12:08:27.230Z,36.80
2018-08-22T12:09:27.432Z,36.82
2018-08-22T12:10:27.646Z,36.80
2018-08-22T12:11:27.840Z,37.07
2018-08-22T12:12:28.037Z,37.27
2018-08-22T12:13:28.243Z,37.52
2018-08-22T12:14:28.447Z,38.65
2018-08-22T12:15:28.648Z,40.19
2018-08-22T12:16:28.859Z,39.74
2018-08-22T12:17:29.055Z,38.80
2018-08-22T12:18:29.256Z,38.51
2018-08-22T12:19:29.454Z,38.02
2018-08-22T12:20:29.654Z,37.74
2018-08-22T12:21:29.891Z,37.54
2018-08-22T12:22:30.069Z,37.52
2018-08-22T12:23:30.276Z,37.94
2018-08-22T12:24:30.475Z,38.06
2018-08-22T12:25:30.671Z,37.54
2018-08-22T12:26:30.867Z,37.54
2018-08-22T12:27:31.067Z,37.25
2018-08-22T12:28:31.269Z,38.10
2018-08-22T12:29:31.470Z,38.04
2018-08-22T12:30:31.670Z,38.53
2018-08-22T12:31:31.873Z,38.06
2018-08-22T12:32:32.079Z,37.98
2018-08-22T12:33:32.272Z,37.50
2018-08-22T12:34:32.480Z,38.09
2018-08-22T12:35:32.677Z,36.32
2018-08-22T12:36:32.883Z,36.93
2018-08-22T12:37:33.092Z,37.23
2018-08-22T12:38:33.287Z,35.46
2018-08-22T12:39:33.485Z,36.05
2018-08-22T12:40:33.684Z,36.15
2018-08-22T12:41:33.883Z,36.03
2018-08-22T12:42:34.192Z,36.52
2018-08-22T12:43:34.331Z,36.54
2018-08-22T12:44:34.576Z,36.91
2018-08-22T12:45:34.736Z,37.19
2018-08-22T12:46:34.945Z,36.49
2018-08-22T12:47:35.152Z,37.17
2018-08-22T12:48:35.358Z,37.88
2018-08-22T12:49:35.555Z,37.56
2018-08-22T12:50:35.758Z,37.56
2018-08-22T12:51:35.961Z,37.27
2018-08-22T12:52:36.161Z,38.27
2018-08-22T12:53:36.361Z,37.48
2018-08-22T12:54:36.566Z,36.32